sensor_id;sensor_type;location;lat;lon;timestamp;pressure;altitude;pressure_sealevel;temperature;humidity
43486;BME280;30447;48.742;8.972;2024-01-06T00:00:16;95586.41;;;3.47;100.00
43486;BME280;30447;48.742;8.972;2024-01-06T00:02:43;95580.41;;;3.46;100.00
43486;BME280;30447;48.742;8.972;2024-01-06T00:05:10;95585.59;;;3.51;100.00
43486;BME280;30447;48.742;8.972;2024-01-06T00:07:36;95588.97;;;3.47;100.00
43486;BME280;30447;48.742;8.972;2024-01-06T00:10:03;95587.34;;;3.61;100.00
43486;BME280;30447;48.742;8.972;2024-01-06T00:12:30;95590.78;;;3.60;100.00
43486;BME280;30447;48.742;8.972;2024-01-06T00:14:56;95591.56;;;3.50;100.00
43486;BME280;30447;48.742;8.972;2024-01-06T00:17:23;95589.81;;;3.49;100.00
43486;BME280;30447;48.742;8.972;2024-01-06T00:19:50;95591.59;;;3.61;99.92
43486;BME280;30447;48.742;8.972;2024-01-06T00:22:21;95597.50;;;3.46;98.99
43486;BME280;30447;48.742;8.972;2024-01-06T00:24:47;95599.12;;;3.36;99.75
43486;BME280;30447;48.742;8.972;2024-01-06T00:27:14;95596.53;;;3.29;99.39
43486;BME280;30447;48.742;8.972;2024-01-06T00:29:42;95595.81;;;3.44;98.77
43486;BME280;30447;48.742;8.972;2024-01-06T00:32:09;95589.78;;;3.42;98.89
43486;BME280;30447;48.742;8.972;2024-01-06T00:34:35;95588.09;;;3.41;99.17
43486;BME280;30447;48.742;8.972;2024-01-06T00:37:02;95597.41;;;3.30;99.50
43486;BME280;30447;48.742;8.972;2024-01-06T00:39:28;95594.91;;;3.39;99.27
43486;BME280;30447;48.742;8.972;2024-01-06T00:41:55;95597.53;;;3.47;99.02
43486;BME280;30447;48.742;8.972;2024-01-06T00:44:22;95591.41;;;3.25;99.85
43486;BME280;30447;48.742;8.972;2024-01-06T00:46:48;95600.00;;;3.36;100.00
43486;BME280;30447;48.742;8.972;2024-01-06T00:49:15;95602.59;;;3.41;100.00
43486;BME280;30447;48.742;8.972;2024-01-06T00:51:42;95612.75;;;3.28;100.00
43486;BME280;30447;48.742;8.972;2024-01-06T00:54:08;95616.19;;;3.32;100.00
43486;BME280;30447;48.742;8.972;2024-01-06T00:56:35;95617.84;;;3.22;100.00
43486;BME280;30447;48.742;8.972;2024-01-06T00:59:01;95618.69;;;3.24;100.00
43486;BME280;30447;48.742;8.972;2024-01-06T01:01:28;95620.34;;;3.16;100.00
43486;BME280;30447;48.742;8.972;2024-01-06T01:03:54;95625.63;;;3.36;100.00
43486;BME280;30447;48.742;8.972;2024-01-06T01:06:21;95622.28;;;3.51;100.00
43486;BME280;30447;48.742;8.972;2024-01-06T01:08:48;95628.16;;;3.32;100.00
43486;BME280;30447;48.742;8.972;2024-01-06T01:11:14;95632.41;;;3.31;100.00
43486;BME280;30447;48.742;8.972;2024-01-06T01:13:41;95631.56;;;3.32;100.00
43486;BME280;30447;48.742;8.972;2024-01-06T01:16:07;95635.84;;;3.35;100.00
43486;BME280;30447;48.742;8.972;2024-01-06T01:18:34;95640.16;;;3.40;100.00
43486;BME280;30447;48.742;8.972;2024-01-06T01:21:01;95634.94;;;3.29;100.00
43486;BME280;30447;48.742;8.972;2024-01-06T01:23:27;95640.16;;;3.40;100.00
43486;BME280;30447;48.742;8.972;2024-01-06T01:25:54;95635.84;;;3.35;100.00
43486;BME280;30447;48.742;8.972;2024-01-06T01:28:21;95638.56;;;3.60;99.99
43486;BME280;30447;48.742;8.972;2024-01-06T01:30:47;95633.59;;;3.83;97.98
43486;BME280;30447;48.742;8.972;2024-01-06T01:33:14;95641.06;;;3.50;99.61
43486;BME280;30447;48.742;8.972;2024-01-06T01:35:40;95640.09;;;3.31;100.00
43486;BME280;30447;48.742;8.972;2024-01-06T01:38:07;95648.75;;;3.50;100.00
43486;BME280;30447;48.742;8.972;2024-01-06T01:40:34;95648.63;;;3.33;100.00
43486;BME280;30447;48.742;8.972;2024-01-06T01:43:00;95650.38;;;3.37;100.00
43486;BME280;30447;48.742;8.972;2024-01-06T01:45:27;95643.63;;;3.47;100.00
43486;BME280;30447;48.742;8.972;2024-01-06T01:47:54;95651.00;;;3.10;100.00
43486;BME280;30447;48.742;8.972;2024-01-06T01:50:20;95648.75;;;3.50;100.00
43486;BME280;30447;48.742;8.972;2024-01-06T01:52:48;95652.09;;;3.40;100.00
43486;BME280;30447;48.742;8.972;2024-01-06T01:55:15;95664.06;;;3.39;100.00
43486;BME280;30447;48.742;8.972;2024-01-06T01:57:42;95664.00;;;3.35;100.00
43486;BME280;30447;48.742;8.972;2024-01-06T02:00:09;95665.78;;;3.42;100.00
43486;BME280;30447;48.742;8.972;2024-01-06T02:02:37;95664.87;;;3.35;100.00
43486;BME280;30447;48.742;8.972;2024-01-06T02:05:03;95674.31;;;3.39;100.00
43486;BME280;30447;48.742;8.972;2024-01-06T02:07:31;95675.09;;;3.29;100.00
43486;BME280;30447;48.742;8.972;2024-01-06T02:09:57;95675.81;;;3.18;100.00
43486;BME280;30447;48.742;8.972;2024-01-06T02:12:24;95682.91;;;3.49;100.00
43486;BME280;30447;48.742;8.972;2024-01-06T02:14:50;95680.44;;;3.60;100.00
43486;BME280;30447;48.742;8.972;2024-01-06T02:17:17;95681.22;;;3.53;100.00
43486;BME280;30447;48.742;8.972;2024-01-06T02:19:44;95678.63;;;3.47;100.00
43486;BME280;30447;48.742;8.972;2024-01-06T02:22:10;95680.34;;;3.48;100.00
43486;BME280;30447;48.742;8.972;2024-01-06T02:24:37;95690.16;;;2.98;100.00
43486;BME280;30447;48.742;8.972;2024-01-06T02:27:04;95681.09;;;3.36;100.00
43486;BME280;30447;48.742;8.972;2024-01-06T02:29:30;95685.38;;;3.35;100.00
43486;BME280;30447;48.742;8.972;2024-01-06T02:31:57;95689.72;;;3.46;100.00
43486;BME280;30447;48.742;8.972;2024-01-06T02:34:25;95687.91;;;3.34;100.00
43486;BME280;30447;48.742;8.972;2024-01-06T02:36:51;95691.34;;;3.34;100.00
43486;BME280;30447;48.742;8.972;2024-01-06T02:39:18;95686.25;;;3.40;100.00
43486;BME280;30447;48.742;8.972;2024-01-06T02:41:44;95693.06;;;3.35;100.00
43486;BME280;30447;48.742;8.972;2024-01-06T02:44:11;95688.78;;;3.36;100.00
43486;BME280;30447;48.742;8.972;2024-01-06T02:46:40;95693.94;;;3.39;100.00
43486;BME280;30447;48.742;8.972;2024-01-06T02:49:07;95692.13;;;3.28;100.00
43486;BME280;30447;48.742;8.972;2024-01-06T02:51:34;95698.12;;;3.27;100.00
43486;BME280;30447;48.742;8.972;2024-01-06T02:54:01;95704.13;;;3.33;100.00
43486;BME280;30447;48.742;8.972;2024-01-06T02:56:28;95697.19;;;3.24;100.00
43486;BME280;30447;48.742;8.972;2024-01-06T02:58:54;95691.28;;;3.29;100.00
43486;BME280;30447;48.742;8.972;2024-01-06T03:01:21;95688.72;;;3.28;100.00
43486;BME280;30447;48.742;8.972;2024-01-06T03:03:47;95696.44;;;3.33;100.00
43486;BME280;30447;48.742;8.972;2024-01-06T03:06:14;95700.69;;;3.29;99.74
43486;BME280;30447;48.742;8.972;2024-01-06T03:08:41;95700.56;;;3.16;100.00
43486;BME280;30447;48.742;8.972;2024-01-06T03:11:07;95697.97;;;3.15;100.00
43486;BME280;30447;48.742;8.972;2024-01-06T03:13:34;95697.25;;;3.28;100.00
43486;BME280;30447;48.742;8.972;2024-01-06T03:16:03;95702.97;;;3.01;100.00
43486;BME280;30447;48.742;8.972;2024-01-06T03:18:31;95692.19;;;3.32;100.00
43486;BME280;30447;48.742;8.972;2024-01-06T03:20:58;95686.97;;;3.25;100.00
43486;BME280;30447;48.742;8.972;2024-01-06T03:23:24;95692.09;;;3.22;100.00
43486;BME280;30447;48.742;8.972;2024-01-06T03:25:51;95687.91;;;3.34;100.00
43486;BME280;30447;48.742;8.972;2024-01-06T03:28:17;95687.94;;;3.38;100.00
43486;BME280;30447;48.742;8.972;2024-01-06T03:30:44;95697.25;;;3.28;99.89
43486;BME280;30447;48.742;8.972;2024-01-06T03:33:11;95687.91;;;3.32;99.62
43486;BME280;30447;48.742;8.972;2024-01-06T03:35:38;95690.56;;;3.44;99.19
43486;BME280;30447;48.742;8.972;2024-01-06T03:38:05;95683.59;;;3.29;100.00
43486;BME280;30447;48.742;8.972;2024-01-06T03:40:31;95691.22;;;3.22;100.00
43486;BME280;30447;48.742;8.972;2024-01-06T03:42:58;95680.28;;;3.37;100.00
43486;BME280;30447;48.742;8.972;2024-01-06T03:45:24;95690.38;;;3.23;100.00
43486;BME280;30447;48.742;8.972;2024-01-06T03:47:51;95684.78;;;3.74;99.96
43486;BME280;30447;48.742;8.972;2024-01-06T03:50:18;95687.34;;;3.70;98.55
43486;BME280;30447;48.742;8.972;2024-01-06T03:52:44;95684.69;;;3.56;99.21
43486;BME280;30447;48.742;8.972;2024-01-06T03:55:11;95682.75;;;3.30;100.00
43486;BME280;30447;48.742;8.972;2024-01-06T03:57:37;95688.63;;;3.15;100.00
43486;BME280;30447;48.742;8.972;2024-01-06T04:00:05;95687.09;;;3.38;100.00
43486;BME280;30447;48.742;8.972;2024-01-06T04:02:31;95684.53;;;3.36;100.00
43486;BME280;30447;48.742;8.972;2024-01-06T04:04:58;95688.81;;;3.39;100.00
43486;BME280;30447;48.742;8.972;2024-01-06T04:07:25;95690.59;;;3.51;100.00
43486;BME280;30447;48.742;8.972;2024-01-06T04:09:51;95698.94;;;3.25;100.00
43486;BME280;30447;48.742;8.972;2024-01-06T04:12:18;95699.12;;;3.48;100.00
43486;BME280;30447;48.742;8.972;2024-01-06T04:14:45;95694.75;;;3.32;100.00
43486;BME280;30447;48.742;8.972;2024-01-06T04:17:11;95693.03;;;3.32;99.72
43486;BME280;30447;48.742;8.972;2024-01-06T04:19:38;95692.91;;;3.18;99.57
43486;BME280;30447;48.742;8.972;2024-01-06T04:22:04;95703.09;;;3.12;100.00
43486;BME280;30447;48.742;8.972;2024-01-06T04:24:31;95705.66;;;3.15;99.33
43486;BME280;30447;48.742;8.972;2024-01-06T04:27:00;95712.47;;;3.11;99.59
43486;BME280;30447;48.742;8.972;2024-01-06T04:29:27;95707.31;;;3.10;99.74
43486;BME280;30447;48.742;8.972;2024-01-06T04:31:54;95713.28;;;3.09;99.53
43486;BME280;30447;48.742;8.972;2024-01-06T04:34:20;95703.16;;;3.18;99.53
43486;BME280;30447;48.742;8.972;2024-01-06T04:36:47;95712.50;;;3.17;99.66
43486;BME280;30447;48.742;8.972;2024-01-06T04:39:15;95713.25;;;3.04;100.00
43486;BME280;30447;48.742;8.972;2024-01-06T04:41:41;95700.59;;;3.20;100.00
43486;BME280;30447;48.742;8.972;2024-01-06T04:44:08;95711.56;;;3.06;100.00
43486;BME280;30447;48.742;8.972;2024-01-06T04:46:35;95698.88;;;3.20;100.00
43486;BME280;30447;48.742;8.972;2024-01-06T04:49:01;95710.00;;;3.21;99.79
43486;BME280;30447;48.742;8.972;2024-01-06T04:51:28;95697.19;;;3.21;100.00
43486;BME280;30447;48.742;8.972;2024-01-06T04:53:55;95706.47;;;3.08;100.00
43486;BME280;30447;48.742;8.972;2024-01-06T04:56:22;95717.53;;;3.08;100.00
43486;BME280;30447;48.742;8.972;2024-01-06T04:58:48;95714.41;;;3.34;100.00
43486;BME280;30447;48.742;8.972;2024-01-06T05:01:15;95711.84;;;3.34;100.00
43486;BME280;30447;48.742;8.972;2024-01-06T05:03:42;95720.38;;;3.36;100.00
43486;BME280;30447;48.742;8.972;2024-01-06T05:06:08;95709.31;;;3.43;100.00
43486;BME280;30447;48.742;8.972;2024-01-06T05:08:35;95712.66;;;3.32;100.00
43486;BME280;30447;48.742;8.972;2024-01-06T05:11:05;95713.59;;;3.41;100.00
43486;BME280;30447;48.742;8.972;2024-01-06T05:13:31;95711.91;;;3.42;100.00
43486;BME280;30447;48.742;8.972;2024-01-06T05:15:58;95716.97;;;3.37;100.00
43486;BME280;30447;48.742;8.972;2024-01-06T05:18:25;95711.88;;;3.40;100.00
43486;BME280;30447;48.742;8.972;2024-01-06T05:20:51;95721.16;;;3.30;100.00
43486;BME280;30447;48.742;8.972;2024-01-06T05:23:18;95717.84;;;3.41;100.00
43486;BME280;30447;48.742;8.972;2024-01-06T05:25:45;95713.66;;;3.49;99.90
43486;BME280;30447;48.742;8.972;2024-01-06T05:28:11;95719.63;;;3.50;99.91
43486;BME280;30447;48.742;8.972;2024-01-06T05:30:38;95726.44;;;3.44;99.51
43486;BME280;30447;48.742;8.972;2024-01-06T05:33:04;95730.72;;;3.47;100.00
43486;BME280;30447;48.742;8.972;2024-01-06T05:35:31;95728.28;;;3.64;100.00
43486;BME280;30447;48.742;8.972;2024-01-06T05:37:58;95734.16;;;3.51;100.00
43486;BME280;30447;48.742;8.972;2024-01-06T05:40:24;95734.22;;;3.59;100.00
43486;BME280;30447;48.742;8.972;2024-01-06T05:42:51;95735.94;;;3.61;100.00
43486;BME280;30447;48.742;8.972;2024-01-06T05:45:21;95733.34;;;3.58;100.00
43486;BME280;30447;48.742;8.972;2024-01-06T05:47:48;95726.50;;;3.55;100.00
43486;BME280;30447;48.742;8.972;2024-01-06T05:50:16;95737.53;;;3.47;100.00
43486;BME280;30447;48.742;8.972;2024-01-06T05:52:43;95744.41;;;3.52;100.00
43486;BME280;30447;48.742;8.972;2024-01-06T05:55:09;95754.66;;;3.51;100.00
43486;BME280;30447;48.742;8.972;2024-01-06T05:57:36;95763.16;;;3.47;100.00
43486;BME280;30447;48.742;8.972;2024-01-06T06:00:03;95770.00;;;3.49;100.00
43486;BME280;30447;48.742;8.972;2024-01-06T06:02:33;95767.34;;;3.37;100.00
43486;BME280;30447;48.742;8.972;2024-01-06T06:05:01;95775.16;;;3.54;100.00
43486;BME280;30447;48.742;8.972;2024-01-06T06:07:27;95773.53;;;3.59;100.00
43486;BME280;30447;48.742;8.972;2024-01-06T06:09:54;95777.72;;;3.55;100.00
43486;BME280;30447;48.742;8.972;2024-01-06T06:12:20;95783.75;;;3.57;100.00
43486;BME280;30447;48.742;8.972;2024-01-06T06:14:47;95791.47;;;3.62;100.00
43486;BME280;30447;48.742;8.972;2024-01-06T06:17:14;95792.69;;;3.13;100.00
43486;BME280;30447;48.742;8.972;2024-01-06T06:19:40;95793.97;;;3.56;100.00
43486;BME280;30447;48.742;8.972;2024-01-06T06:22:07;95788.09;;;3.71;100.00
43486;BME280;30447;48.742;8.972;2024-01-06T06:24:33;95788.16;;;3.74;100.00
43486;BME280;30447;48.742;8.972;2024-01-06T06:27:00;95795.00;;;3.77;100.00
43486;BME280;30447;48.742;8.972;2024-01-06T06:29:27;95805.28;;;3.83;100.00
43486;BME280;30447;48.742;8.972;2024-01-06T06:31:55;95807.03;;;3.87;100.00
43486;BME280;30447;48.742;8.972;2024-01-06T06:34:21;95805.28;;;3.80;100.00
43486;BME280;30447;48.742;8.972;2024-01-06T06:36:48;95799.31;;;3.81;100.00
43486;BME280;30447;48.742;8.972;2024-01-06T06:39:14;95801.72;;;3.64;100.00
43486;BME280;30447;48.742;8.972;2024-01-06T06:41:42;95809.47;;;3.72;100.00
43486;BME280;30447;48.742;8.972;2024-01-06T06:44:08;95815.66;;;3.99;100.00
43486;BME280;30447;48.742;8.972;2024-01-06T06:46:35;95812.31;;;4.09;99.36
43486;BME280;30447;48.742;8.972;2024-01-06T06:49:01;95826.72;;;3.91;100.00
43486;BME280;30447;48.742;8.972;2024-01-06T06:51:28;95829.25;;;3.88;100.00
43486;BME280;30447;48.742;8.972;2024-01-06T06:53:56;95824.97;;;3.86;100.00
43486;BME280;30447;48.742;8.972;2024-01-06T06:56:23;95838.69;;;3.91;100.00
43486;BME280;30447;48.742;8.972;2024-01-06T06:58:49;95837.38;;;3.43;100.00
43486;BME280;30447;48.742;8.972;2024-01-06T07:01:16;95836.03;;;3.78;100.00
43486;BME280;30447;48.742;8.972;2024-01-06T07:03:43;95839.47;;;3.83;100.00
43486;BME280;30447;48.742;8.972;2024-01-06T07:06:12;95842.94;;;3.87;100.00
43486;BME280;30447;48.742;8.972;2024-01-06T07:08:40;95848.09;;;3.90;100.00
43486;BME280;30447;48.742;8.972;2024-01-06T07:11:08;95851.34;;;3.70;100.00
43486;BME280;30447;48.742;8.972;2024-01-06T07:13:35;95852.16;;;3.71;100.00
43486;BME280;30447;48.742;8.972;2024-01-06T07:16:01;95848.91;;;3.88;100.00
43486;BME280;30447;48.742;8.972;2024-01-06T07:18:28;95844.53;;;3.76;99.72
43486;BME280;30447;48.742;8.972;2024-01-06T07:20:54;95842.97;;;3.93;97.32
43486;BME280;30447;48.742;8.972;2024-01-06T07:23:21;95845.59;;;3.98;94.68
43486;BME280;30447;48.742;8.972;2024-01-06T07:25:47;95849.88;;;4.01;94.12
43486;BME280;30447;48.742;8.972;2024-01-06T07:28:15;95836.31;;;4.13;92.44
43486;BME280;30447;48.742;8.972;2024-01-06T07:30:42;95838.94;;;4.25;90.98
43486;BME280;30447;48.742;8.972;2024-01-06T07:33:08;95840.69;;;4.29;90.45
43486;BME280;30447;48.742;8.972;2024-01-06T07:35:35;95845.09;;;4.47;90.18
43486;BME280;30447;48.742;8.972;2024-01-06T07:38:02;95839.78;;;4.22;90.71
43486;BME280;30447;48.742;8.972;2024-01-06T07:40:28;95845.00;;;4.33;89.84
43486;BME280;30447;48.742;8.972;2024-01-06T07:42:55;95845.09;;;4.44;89.48
43486;BME280;30447;48.742;8.972;2024-01-06T07:45:22;95842.56;;;4.50;90.14
43486;BME280;30447;48.742;8.972;2024-01-06T07:47:48;95847.03;;;4.90;89.05
43486;BME280;30447;48.742;8.972;2024-01-06T07:50:15;95845.28;;;4.77;88.65
43486;BME280;30447;48.742;8.972;2024-01-06T07:52:41;95843.44;;;4.56;89.80
43486;BME280;30447;48.742;8.972;2024-01-06T07:55:08;95856.31;;;4.68;88.89
43486;BME280;30447;48.742;8.972;2024-01-06T07:57:34;95852.94;;;4.72;89.04
43486;BME280;30447;48.742;8.972;2024-01-06T08:00:01;95849.53;;;4.75;88.35
43486;BME280;30447;48.742;8.972;2024-01-06T08:02:28;95853.03;;;4.91;88.42
43486;BME280;30447;48.742;8.972;2024-01-06T08:04:54;95853.91;;;4.96;88.10
43486;BME280;30447;48.742;8.972;2024-01-06T08:07:22;95856.50;;;5.01;87.59
43486;BME280;30447;48.742;8.972;2024-01-06T08:09:49;95858.16;;;4.91;88.61
43486;BME280;30447;48.742;8.972;2024-01-06T08:12:15;95866.66;;;4.79;89.31
43486;BME280;30447;48.742;8.972;2024-01-06T08:14:42;95863.13;;;4.60;89.83
43486;BME280;30447;48.742;8.972;2024-01-06T08:17:09;95862.34;;;4.75;90.00
43486;BME280;30447;48.742;8.972;2024-01-06T08:19:35;95864.91;;;4.73;90.11
43486;BME280;30447;48.742;8.972;2024-01-06T08:22:02;95863.31;;;4.96;89.52
43486;BME280;30447;48.742;8.972;2024-01-06T08:24:28;95858.22;;;5.05;88.95
43486;BME280;30447;48.742;8.972;2024-01-06T08:26:55;95863.22;;;4.79;89.70
43486;BME280;30447;48.742;8.972;2024-01-06T08:29:22;95874.44;;;4.95;89.88
43486;BME280;30447;48.742;8.972;2024-01-06T08:31:48;95876.13;;;4.94;89.55
43486;BME280;30447;48.742;8.972;2024-01-06T08:34:18;95880.31;;;4.70;90.31
43486;BME280;30447;48.742;8.972;2024-01-06T08:36:45;95881.25;;;4.89;90.18
43486;BME280;30447;48.742;8.972;2024-01-06T08:39:12;95883.03;;;5.01;89.45
43486;BME280;30447;48.742;8.972;2024-01-06T08:41:39;95882.94;;;4.89;90.67
43486;BME280;30447;48.742;8.972;2024-01-06T08:44:05;95882.19;;;5.04;88.59
43486;BME280;30447;48.742;8.972;2024-01-06T08:46:32;95881.38;;;5.16;89.05
43486;BME280;30447;48.742;8.972;2024-01-06T08:48:59;95891.56;;;4.97;89.38
43486;BME280;30447;48.742;8.972;2024-01-06T08:51:26;95890.84;;;5.25;88.41
43486;BME280;30447;48.742;8.972;2024-01-06T08:53:53;95878.06;;;5.48;87.61
43486;BME280;30447;48.742;8.972;2024-01-06T08:56:20;95886.63;;;5.52;88.05
43486;BME280;30447;48.742;8.972;2024-01-06T08:58:47;95883.13;;;5.20;87.64
43486;BME280;30447;48.742;8.972;2024-01-06T09:01:13;95882.34;;;5.38;87.70
43486;BME280;30447;48.742;8.972;2024-01-06T09:03:40;95889.94;;;5.13;85.84
43486;BME280;30447;48.742;8.972;2024-01-06T09:06:06;95894.25;;;5.21;86.97
43486;BME280;30447;48.742;8.972;2024-01-06T09:08:33;95886.63;;;5.41;85.45
43486;BME280;30447;48.742;8.972;2024-01-06T09:11:00;95894.22;;;5.16;87.37
43486;BME280;30447;48.742;8.972;2024-01-06T09:13:26;95898.44;;;5.01;87.89
43486;BME280;30447;48.742;8.972;2024-01-06T09:15:53;95892.34;;;4.82;88.17
43486;BME280;30447;48.742;8.972;2024-01-06T09:18:19;95890.88;;;5.36;86.47
43486;BME280;30447;48.742;8.972;2024-01-06T09:20:46;95901.81;;;4.96;87.75
43486;BME280;30447;48.742;8.972;2024-01-06T09:23:14;95904.41;;;4.97;88.34
43486;BME280;30447;48.742;8.972;2024-01-06T09:25:41;95902.72;;;5.02;87.95
43486;BME280;30447;48.742;8.972;2024-01-06T09:28:08;95911.34;;;5.11;87.69
43486;BME280;30447;48.742;8.972;2024-01-06T09:30:34;95912.16;;;5.07;88.11
43486;BME280;30447;48.742;8.972;2024-01-06T09:33:01;95917.31;;;5.08;88.70
43486;BME280;30447;48.742;8.972;2024-01-06T09:35:28;95917.34;;;5.19;88.20
43486;BME280;30447;48.742;8.972;2024-01-06T09:37:54;95913.13;;;5.29;87.88
43486;BME280;30447;48.742;8.972;2024-01-06T09:40:23;95916.44;;;5.08;87.61
43486;BME280;30447;48.742;8.972;2024-01-06T09:42:51;95925.84;;;5.04;88.59
43486;BME280;30447;48.742;8.972;2024-01-06T09:45:19;95925.84;;;5.06;88.85
43486;BME280;30447;48.742;8.972;2024-01-06T09:47:50;95926.78;;;5.20;88.56
43486;BME280;30447;48.742;8.972;2024-01-06T09:50:19;95931.16;;;5.40;87.57
43486;BME280;30447;48.742;8.972;2024-01-06T09:52:48;95930.34;;;5.49;87.72
43486;BME280;30447;48.742;8.972;2024-01-06T09:55:24;95931.19;;;5.48;87.79
43486;BME280;30447;48.742;8.972;2024-01-06T09:57:55;95931.25;;;5.71;86.94
43486;BME280;30447;48.742;8.972;2024-01-06T10:00:22;95931.16;;;5.38;87.80
43486;BME280;30447;48.742;8.972;2024-01-06T10:02:49;95932.06;;;5.58;87.35
43486;BME280;30447;48.742;8.972;2024-01-06T10:05:17;95932.06;;;5.56;87.88
43486;BME280;30447;48.742;8.972;2024-01-06T10:07:45;95927.09;;;6.03;84.98
43486;BME280;30447;48.742;8.972;2024-01-06T10:10:13;95931.25;;;5.68;86.11
43486;BME280;30447;48.742;8.972;2024-01-06T10:12:42;95924.38;;;5.59;87.53
43486;BME280;30447;48.742;8.972;2024-01-06T10:15:10;95927.81;;;5.64;87.23
43486;BME280;30447;48.742;8.972;2024-01-06T10:17:41;95931.16;;;5.45;88.49
43486;BME280;30447;48.742;8.972;2024-01-06T10:20:10;95929.44;;;5.36;89.03
43486;BME280;30447;48.742;8.972;2024-01-06T10:22:41;95933.78;;;5.54;88.28
43486;BME280;30447;48.742;8.972;2024-01-06T10:25:11;95937.87;;;5.14;89.24
43486;BME280;30447;48.742;8.972;2024-01-06T10:27:39;95943.06;;;5.22;90.84
43486;BME280;30447;48.742;8.972;2024-01-06T10:30:09;95939.69;;;5.36;89.97
43486;BME280;30447;48.742;8.972;2024-01-06T10:32:37;95939.69;;;5.34;90.14
43486;BME280;30447;48.742;8.972;2024-01-06T10:35:04;95942.34;;;5.51;89.43
43486;BME280;30447;48.742;8.972;2024-01-06T10:37:32;95938.87;;;5.46;89.51
43486;BME280;30447;48.742;8.972;2024-01-06T10:42:36;95932.00;;;5.37;89.15
43486;BME280;30447;48.742;8.972;2024-01-06T10:45:07;95938.87;;;5.43;89.32
43486;BME280;30447;48.742;8.972;2024-01-06T10:47:37;95938.91;;;5.52;89.23
43486;BME280;30447;48.742;8.972;2024-01-06T10:50:05;95942.38;;;5.65;88.43
43486;BME280;30447;48.742;8.972;2024-01-06T10:52:33;95944.84;;;5.39;89.50
43486;BME280;30447;48.742;8.972;2024-01-06T10:55:05;95937.09;;;5.28;90.80
43486;BME280;30447;48.742;8.972;2024-01-06T10:57:32;95942.38;;;5.59;88.99
43486;BME280;30447;48.742;8.972;2024-01-06T10:59:59;95941.41;;;5.37;90.55
43486;BME280;30447;48.742;8.972;2024-01-06T11:02:27;95942.31;;;5.45;89.77
43486;BME280;30447;48.742;8.972;2024-01-06T11:04:54;95939.69;;;5.39;90.00
43486;BME280;30447;48.742;8.972;2024-01-06T11:07:22;95934.50;;;5.23;90.19
43486;BME280;30447;48.742;8.972;2024-01-06T11:10:04;95930.22;;;5.18;91.08
43486;BME280;30447;48.742;8.972;2024-01-06T11:12:36;95924.34;;;5.51;90.33
43486;BME280;30447;48.742;8.972;2024-01-06T11:15:02;95931.25;;;5.74;87.85
43486;BME280;30447;48.742;8.972;2024-01-06T11:20:20;95935.56;;;5.80;87.87
43486;BME280;30447;48.742;8.972;2024-01-06T11:22:48;95936.25;;;5.31;90.50
43486;BME280;30447;48.742;8.972;2024-01-06T11:25:18;95927.81;;;5.66;89.57
43486;BME280;30447;48.742;8.972;2024-01-06T11:27:49;95928.69;;;5.68;89.75
43486;BME280;30447;48.742;8.972;2024-01-06T11:32:51;95918.41;;;5.63;90.71
43486;BME280;30447;48.742;8.972;2024-01-06T11:35:20;95914.97;;;5.69;90.86
43486;BME280;30447;48.742;8.972;2024-01-06T11:42:48;95910.59;;;5.40;93.00
43486;BME280;30447;48.742;8.972;2024-01-06T11:45:29;95908.09;;;5.68;91.90
43486;BME280;30447;48.742;8.972;2024-01-06T11:47:58;95905.50;;;5.51;92.42
43486;BME280;30447;48.742;8.972;2024-01-06T11:50:27;95908.97;;;5.65;91.83
43486;BME280;30447;48.742;8.972;2024-01-06T11:52:54;95905.50;;;5.59;92.03
43486;BME280;30447;48.742;8.972;2024-01-06T11:55:22;95901.22;;;5.53;92.66
43486;BME280;30447;48.742;8.972;2024-01-06T11:57:49;95905.53;;;5.60;91.30
43486;BME280;30447;48.742;8.972;2024-01-06T12:00:17;95898.69;;;5.72;92.02
43486;BME280;30447;48.742;8.972;2024-01-06T12:02:44;95897.81;;;5.66;92.66
43486;BME280;30447;48.742;8.972;2024-01-06T12:05:15;95891.88;;;5.95;90.00
43486;BME280;30447;48.742;8.972;2024-01-06T12:07:53;95896.91;;;5.47;93.10
43486;BME280;30447;48.742;8.972;2024-01-06T12:10:22;95894.34;;;5.42;93.12
43486;BME280;30447;48.742;8.972;2024-01-06T12:13:05;95897.84;;;5.63;93.50
43486;BME280;30447;48.742;8.972;2024-01-06T12:15:36;95896.12;;;5.72;92.24
43486;BME280;30447;48.742;8.972;2024-01-06T12:18:06;95895.25;;;5.68;92.52
43486;BME280;30447;48.742;8.972;2024-01-06T12:20:33;95896.06;;;5.54;92.17
43486;BME280;30447;48.742;8.972;2024-01-06T12:23:00;95903.75;;;5.36;93.98
43486;BME280;30447;48.742;8.972;2024-01-06T12:25:28;95898.69;;;5.61;93.01
43486;BME280;30447;48.742;8.972;2024-01-06T12:27:55;95893.50;;;5.45;94.65
43486;BME280;30447;48.742;8.972;2024-01-06T12:30:23;95896.94;;;5.53;94.02
43486;BME280;30447;48.742;8.972;2024-01-06T12:32:50;95887.53;;;5.55;93.67
43486;BME280;30447;48.742;8.972;2024-01-06T12:35:20;95893.59;;;5.78;92.30
43486;BME280;30447;48.742;8.972;2024-01-06T12:37:47;95888.41;;;5.67;92.78
43486;BME280;30447;48.742;8.972;2024-01-06T12:40:16;95898.69;;;5.65;92.60
43486;BME280;30447;48.742;8.972;2024-01-06T12:42:43;95898.66;;;5.59;93.10
43486;BME280;30447;48.742;8.972;2024-01-06T12:45:10;95892.59;;;5.31;95.18
43486;BME280;30447;48.742;8.972;2024-01-06T12:47:37;95884.97;;;5.62;93.91
43486;BME280;30447;48.742;8.972;2024-01-06T12:50:04;95895.25;;;5.55;92.95
43486;BME280;30447;48.742;8.972;2024-01-06T12:52:32;95897.75;;;5.43;93.68
43486;BME280;30447;48.742;8.972;2024-01-06T12:55:00;95885.87;;;5.78;92.26
43486;BME280;30447;48.742;8.972;2024-01-06T12:57:26;95896.12;;;5.73;92.30
43486;BME280;30447;48.742;8.972;2024-01-06T12:59:53;95885.87;;;5.78;92.35
43486;BME280;30447;48.742;8.972;2024-01-06T13:02:20;95886.63;;;5.42;94.13
43486;BME280;30447;48.742;8.972;2024-01-06T13:04:47;95892.69;;;5.69;93.09
43486;BME280;30447;48.742;8.972;2024-01-06T13:07:14;95892.66;;;5.57;94.13
43486;BME280;30447;48.742;8.972;2024-01-06T13:09:41;95890.03;;;5.43;94.50
43486;BME280;30447;48.742;8.972;2024-01-06T13:12:07;95896.91;;;5.41;94.43
43486;BME280;30447;48.742;8.972;2024-01-06T13:14:34;95897.72;;;5.34;95.35
43486;BME280;30447;48.742;8.972;2024-01-06T13:17:02;95894.34;;;5.46;94.70